Time;durP1;ratioP1;P1;durP2;ratioP2;P2;SDS_P1;SDS_P2;PMS_P1;PMS_P2;Temp;Humidity;BMP_temperature;BMP_pressure;BME280_temperature;BME280_humidity;BME280_pressure;Samples;Min_cycle;Max_cycle;Signal;HPM_P1;HPM_P2
2023/04/27 00:01:59;;;;;;;12.77;6.30;;;3.30;99.90;;;;;;5038605;28;20045;-58
2023/04/27 00:04:24;;;;;;;11.40;6.20;;;3.30;99.90;;;;;;5039347;28;20049;-57
2023/04/27 00:06:51;;;;;;;10.25;6.30;;;3.30;99.90;;;;;;5039010;28;20053;-57
2023/04/27 00:09:16;;;;;;;12.23;6.40;;;3.20;99.90;;;;;;5039627;28;20046;-58
2023/04/27 00:11:42;;;;;;;11.77;6.32;;;3.20;99.90;;;;;;5039212;28;20047;-57
2023/04/27 00:14:08;;;;;;;14.25;6.18;;;3.20;99.90;;;;;;5038516;28;20049;-58
2023/04/27 00:16:33;;;;;;;12.13;6.30;;;3.20;99.90;;;;;;5021469;28;20049;-58
2023/04/27 00:18:59;;;;;;;10.18;6.40;;;3.20;99.90;;;;;;5038097;28;20056;-58
2023/04/27 00:21:25;;;;;;;7.97;5.65;;;3.10;99.90;;;;;;5039359;28;20046;-58
2023/04/27 00:23:52;;;;;;;9.80;6.20;;;3.10;99.90;;;;;;5038126;28;20056;-58
2023/04/27 00:26:19;;;;;;;9.73;6.15;;;3.10;99.90;;;;;;5039646;28;20038;-58
2023/04/27 00:28:45;;;;;;;12.23;7.13;;;3.10;99.90;;;;;;5004947;28;20050;-58
2023/04/27 00:31:11;;;;;;;12.07;6.22;;;3.00;99.90;;;;;;5020776;28;20049;-58
2023/04/27 00:33:37;;;;;;;8.85;6.30;;;3.00;99.90;;;;;;5038715;28;20049;-58
2023/04/27 00:36:03;;;;;;;10.70;6.28;;;3.00;99.90;;;;;;5038193;28;20116;-58
2023/04/27 00:38:29;;;;;;;12.30;6.97;;;2.90;99.90;;;;;;5039161;28;20046;-58
2023/04/27 00:41:05;;;;;;;9.25;6.00;;;2.90;99.90;;;;;;5038433;28;20041;-57
2023/04/27 00:43:32;;;;;;;9.95;6.30;;;2.90;99.90;;;;;;5038756;28;20076;-58
2023/04/27 00:45:59;;;;;;;13.20;6.85;;;2.90;99.90;;;;;;5020806;28;20095;-58
2023/04/27 00:48:25;;;;;;;10.57;6.07;;;2.80;99.90;;;;;;5038434;28;20049;-58
2023/04/27 00:50:51;;;;;;;10.05;6.28;;;2.80;99.90;;;;;;5038756;28;20665;-58
2023/04/27 00:53:17;;;;;;;15.50;6.55;;;2.80;99.90;;;;;;5038310;28;20054;-57
2023/04/27 00:55:42;;;;;;;10.70;6.65;;;2.80;99.90;;;;;;5038873;28;20077;-57
2023/04/27 00:58:08;;;;;;;12.35;5.90;;;2.70;99.90;;;;;;5038329;28;20042;-57
2023/04/27 01:00:39;;;;;;;10.73;6.72;;;2.70;99.90;;;;;;5038567;28;20101;-58
2023/04/27 01:03:06;;;;;;;13.25;6.57;;;2.70;99.90;;;;;;5020896;28;20064;-58
2023/04/27 01:05:31;;;;;;;10.13;6.63;;;2.70;99.90;;;;;;5038250;28;20045;-57
2023/04/27 01:07:57;;;;;;;11.77;7.05;;;2.60;99.90;;;;;;5020839;28;20114;-58
2023/04/27 01:10:23;;;;;;;9.80;5.93;;;2.70;99.90;;;;;;5038100;28;20128;-58
2023/04/27 01:12:49;;;;;;;12.88;6.65;;;2.60;99.90;;;;;;5038647;28;20048;-58
2023/04/27 01:15:14;;;;;;;9.75;6.55;;;2.60;99.90;;;;;;5037332;28;20076;-58
2023/04/27 01:17:41;;;;;;;10.60;6.38;;;2.60;99.90;;;;;;5038894;28;20148;-57
2023/04/27 01:20:08;;;;;;;11.25;6.07;;;2.50;99.90;;;;;;5038309;28;20100;-57
2023/04/27 01:22:34;;;;;;;11.85;6.10;;;2.50;99.90;;;;;;5038531;28;20049;-58
2023/04/27 01:25:00;;;;;;;11.85;6.25;;;2.50;99.90;;;;;;5038501;28;20076;-57
2023/04/27 01:27:26;;;;;;;10.98;6.35;;;2.50;99.90;;;;;;5038128;28;20041;-58
2023/04/27 01:29:51;;;;;;;10.88;6.22;;;2.50;99.90;;;;;;5038157;28;20068;-58
2023/04/27 01:32:17;;;;;;;9.30;6.20;;;2.50;99.90;;;;;;5019995;28;20567;-57
2023/04/27 01:34:43;;;;;;;8.90;5.85;;;2.50;99.90;;;;;;5038977;28;20041;-58
2023/04/27 01:37:08;;;;;;;12.07;6.88;;;2.50;99.90;;;;;;5041962;28;20080;-58
2023/04/27 01:39:34;;;;;;;9.52;6.30;;;2.40;99.90;;;;;;5042066;28;20048;-58
2023/04/27 01:42:02;;;;;;;10.27;5.80;;;2.40;99.90;;;;;;5042051;28;20045;-58
2023/04/27 01:44:28;;;;;;;9.05;6.20;;;2.30;99.90;;;;;;5040582;28;20056;-57
2023/04/27 01:46:53;;;;;;;9.95;6.25;;;2.20;99.90;;;;;;5042081;28;20037;-58
2023/04/27 01:49:19;;;;;;;13.40;6.65;;;2.20;99.90;;;;;;5041416;28;20109;-58
2023/04/27 01:51:45;;;;;;;8.15;5.68;;;2.20;99.90;;;;;;5042199;28;20093;-58
2023/04/27 01:54:10;;;;;;;10.73;6.68;;;2.20;99.90;;;;;;5041650;28;20042;-57
2023/04/27 01:56:36;;;;;;;10.55;6.80;;;2.10;99.90;;;;;;5041914;28;20037;-58
2023/04/27 01:59:02;;;;;;;14.20;6.57;;;2.10;99.90;;;;;;5041678;28;20536;-58
2023/04/27 02:01:28;;;;;;;11.10;7.10;;;2.20;99.90;;;;;;5040885;28;20065;-58
2023/04/27 02:03:53;;;;;;;10.57;6.13;;;2.00;99.90;;;;;;5041489;28;20042;-58
2023/04/27 02:06:19;;;;;;;9.80;6.05;;;2.10;99.90;;;;;;5041046;28;20049;-59
2023/04/27 02:08:45;;;;;;;9.60;6.45;;;2.00;99.90;;;;;;5041668;28;20049;-58
2023/04/27 02:11:10;;;;;;;14.07;7.00;;;2.00;99.90;;;;;;5041219;28;20053;-57
2023/04/27 02:13:36;;;;;;;13.13;7.82;;;2.00;99.90;;;;;;5023459;28;20041;-58
2023/04/27 02:16:03;;;;;;;11.25;7.07;;;1.90;99.90;;;;;;5041631;28;20076;-57
2023/04/27 02:18:31;;;;;;;10.45;5.85;;;1.90;99.90;;;;;;5040613;28;20092;-58
2023/04/27 02:20:57;;;;;;;15.75;5.93;;;1.90;99.90;;;;;;5041319;28;20049;-58
2023/04/27 02:23:23;;;;;;;59.40;6.35;;;1.90;99.90;;;;;;5040717;28;20440;-58
2023/04/27 02:25:48;;;;;;;15.05;6.20;;;1.90;99.90;;;;;;5041454;28;20500;-58
2023/04/27 02:28:14;;;;;;;9.40;5.65;;;1.80;99.90;;;;;;5040778;28;20196;-58
2023/04/27 02:30:40;;;;;;;8.85;6.07;;;2.00;99.90;;;;;;5041123;28;20048;-57
2023/04/27 02:33:05;;;;;;;9.68;6.38;;;1.70;99.90;;;;;;5041211;28;20041;-58
2023/04/27 02:35:32;;;;;;;10.23;6.60;;;1.70;99.90;;;;;;5040666;28;20033;-58
2023/04/27 02:37:58;;;;;;;8.27;5.85;;;1.60;99.90;;;;;;5041110;28;20067;-57
2023/04/27 02:40:24;;;;;;;8.57;5.78;;;1.60;99.90;;;;;;5040323;28;20049;-58
2023/04/27 02:42:50;;;;;;;9.27;5.97;;;1.60;99.90;;;;;;5041049;28;20452;-58
2023/04/27 02:45:16;;;;;;;10.05;7.05;;;1.50;99.90;;;;;;5040082;28;20041;-58
2023/04/27 02:47:42;;;;;;;11.65;7.57;;;1.50;99.90;;;;;;5040746;28;20050;-57
2023/04/27 02:50:09;;;;;;;13.63;8.02;;;1.40;99.90;;;;;;5040638;28;20120;-57
2023/04/27 02:52:34;;;;;;;11.80;7.90;;;1.40;99.90;;;;;;5040476;28;20049;-58
2023/04/27 02:55:00;;;;;;;12.30;7.35;;;1.40;99.90;;;;;;5022657;28;20165;-58
2023/04/27 02:57:26;;;;;;;15.18;7.40;;;1.40;99.90;;;;;;5040140;28;20060;-58
2023/04/27 02:59:52;;;;;;;12.60;7.78;;;1.30;99.90;;;;;;5040604;28;20088;-57
2023/04/27 03:02:18;;;;;;;15.45;7.70;;;1.30;99.90;;;;;;5039618;28;20049;-58
2023/04/27 03:04:44;;;;;;;15.05;8.02;;;1.30;99.90;;;;;;5023063;28;20064;-57
2023/04/27 03:07:11;;;;;;;13.52;7.68;;;1.30;99.90;;;;;;5022725;28;20063;-57
2023/04/27 03:09:37;;;;;;;14.20;8.30;;;1.30;99.90;;;;;;5040158;28;20052;-57
2023/04/27 03:12:03;;;;;;;14.25;7.63;;;1.40;99.90;;;;;;5022473;28;20041;-57
2023/04/27 03:14:29;;;;;;;15.38;8.43;;;1.30;99.90;;;;;;5039395;28;20091;-57
2023/04/27 03:16:56;;;;;;;15.32;8.38;;;1.30;99.90;;;;;;5040479;28;20049;-57
2023/04/27 03:19:22;;;;;;;12.52;7.82;;;1.30;99.90;;;;;;5039248;28;20501;-57
2023/04/27 03:21:48;;;;;;;12.43;7.43;;;1.30;99.90;;;;;;5040633;28;20041;-57
2023/04/27 03:24:13;;;;;;;13.10;7.80;;;1.30;99.90;;;;;;5021919;28;20041;-57
2023/04/27 03:26:39;;;;;;;14.77;7.63;;;1.30;99.90;;;;;;5040272;28;20160;-57
2023/04/27 03:29:05;;;;;;;12.70;8.25;;;1.20;99.90;;;;;;5040089;28;20045;-56
2023/04/27 03:31:31;;;;;;;14.90;8.02;;;1.20;99.90;;;;;;5039046;28;20049;-58
2023/04/27 03:33:56;;;;;;;12.88;8.10;;;1.20;99.90;;;;;;5039902;28;20088;-56
2023/04/27 03:36:22;;;;;;;17.38;8.02;;;1.20;99.90;;;;;;5039319;28;20521;-58
2023/04/27 03:38:48;;;;;;;16.23;8.30;;;1.20;99.90;;;;;;5040227;28;20065;-57
2023/04/27 03:41:13;;;;;;;13.07;8.05;;;1.20;99.90;;;;;;5039632;28;20056;-56
2023/04/27 03:43:39;;;;;;;14.18;7.85;;;1.20;99.90;;;;;;5039612;28;20040;-58
2023/04/27 03:46:05;;;;;;;15.18;8.90;;;1.20;99.90;;;;;;5039975;28;20045;-57
2023/04/27 03:48:30;;;;;;;11.73;7.90;;;1.20;99.90;;;;;;5039165;28;20100;-58
2023/04/27 03:50:56;;;;;;;12.00;7.90;;;1.20;99.90;;;;;;5039531;28;20048;-57
2023/04/27 03:53:22;;;;;;;16.42;8.85;;;1.20;99.90;;;;;;5039015;28;20100;-57
2023/04/27 03:55:47;;;;;;;16.10;8.60;;;1.20;99.90;;;;;;5039851;28;20048;-57
2023/04/27 03:58:13;;;;;;;13.20;8.38;;;1.10;99.90;;;;;;5021145;28;20045;-57
2023/04/27 04:00:39;;;;;;;15.48;8.80;;;1.10;99.90;;;;;;5039116;28;20046;-57
2023/04/27 04:03:06;;;;;;;15.85;8.73;;;1.10;99.90;;;;;;5039602;28;20037;-57
2023/04/27 04:05:32;;;;;;;15.43;8.98;;;1.70;99.90;;;;;;5038781;28;20504;-57
2023/04/27 04:07:58;;;;;;;12.48;8.52;;;1.10;99.90;;;;;;5039195;28;20069;-58
2023/04/27 04:10:24;;;;;;;15.95;8.25;;;1.10;99.90;;;;;;5038773;28;20081;-58
2023/04/27 04:12:51;;;;;;;14.05;7.63;;;1.00;99.90;;;;;;5039311;28;20041;-57
2023/04/27 04:15:17;;;;;;;10.82;7.07;;;1.10;99.90;;;;;;5038252;28;20050;-57
2023/04/27 04:17:43;;;;;;;10.27;6.18;;;1.00;99.90;;;;;;5039422;28;20049;-56
2023/04/27 04:20:09;;;;;;;12.23;7.47;;;1.00;99.90;;;;;;5039144;28;20167;-57
2023/04/27 04:22:36;;;;;;;14.77;8.80;;;1.00;99.90;;;;;;5020974;28;20046;-58
2023/04/27 04:25:03;;;;;;;14.50;7.93;;;0.90;99.90;;;;;;5039114;28;20067;-58
2023/04/27 04:27:30;;;;;;;13.68;8.20;;;0.90;99.90;;;;;;5038598;28;20045;-57
2023/04/27 04:29:57;;;;;;;16.85;8.68;;;0.90;99.90;;;;;;5021421;28;20056;-57
2023/04/27 04:32:23;;;;;;;12.13;7.88;;;0.90;99.90;;;;;;5038057;28;20053;-55
2023/04/27 04:34:52;;;;;;;12.85;8.65;;;0.90;99.90;;;;;;5039241;28;20038;-57
2023/04/27 04:37:17;;;;;;;14.32;8.65;;;0.90;99.90;;;;;;5038641;28;20313;-57
2023/04/27 04:39:44;;;;;;;15.00;9.40;;;1.00;99.90;;;;;;5038519;28;20043;-57
2023/04/27 04:42:10;;;;;;;17.33;8.85;;;1.00;99.90;;;;;;5038889;28;20045;-57
2023/04/27 04:44:35;;;;;;;16.63;9.05;;;1.00;99.90;;;;;;5037912;28;20378;-57
2023/04/27 04:47:01;;;;;;;16.45;9.10;;;1.00;99.90;;;;;;5039052;28;20223;-57
2023/04/27 04:49:27;;;;;;;15.10;8.60;;;1.00;99.90;;;;;;5038261;28;20541;-58
2023/04/27 04:51:52;;;;;;;14.45;8.88;;;1.00;99.90;;;;;;5021084;28;20452;-57
2023/04/27 04:54:18;;;;;;;13.93;8.43;;;1.00;99.90;;;;;;5038467;28;20121;-57
2023/04/27 04:56:44;;;;;;;15.50;8.52;;;1.00;99.90;;;;;;5038629;28;20529;-57
2023/04/27 04:59:10;;;;;;;16.00;9.20;;;2.50;99.90;;;;;;5038663;28;20052;-58
2023/04/27 05:01:35;;;;;;;14.15;8.48;;;1.10;99.90;;;;;;5037890;28;20045;-57
2023/04/27 05:04:01;;;;;;;16.67;9.05;;;1.30;99.90;;;;;;5038627;28;20053;-56
2023/04/27 05:06:27;;;;;;;16.35;8.43;;;1.20;99.90;;;;;;5020130;28;20053;-57
2023/04/27 05:08:52;;;;;;;16.67;9.57;;;1.20;99.90;;;;;;5021168;28;20053;-57
2023/04/27 05:11:18;;;;;;;17.42;9.23;;;1.20;99.90;;;;;;5041389;28;20041;-58
2023/04/27 05:13:44;;;;;;;17.40;9.00;;;1.30;99.90;;;;;;5042065;28;20052;-58
2023/04/27 05:16:10;;;;;;;14.15;8.68;;;1.40;99.90;;;;;;5042792;28;20049;-57
2023/04/27 05:18:35;;;;;;;17.50;8.57;;;1.40;99.90;;;;;;5041667;28;20054;-57
2023/04/27 05:21:02;;;;;;;18.27;9.65;;;1.50;99.90;;;;;;5042452;28;20052;-57
2023/04/27 05:23:27;;;;;;;15.02;9.02;;;1.60;99.90;;;;;;5041872;28;20563;-57
2023/04/27 05:25:53;;;;;;;18.30;9.05;;;1.60;99.90;;;;;;5042839;28;20042;-56
2023/04/27 05:28:19;;;;;;;18.33;9.40;;;1.60;99.90;;;;;;5024585;28;20095;-58
2023/04/27 05:30:45;;;;;;;17.85;9.10;;;1.70;99.90;;;;;;5041980;28;20064;-58
2023/04/27 05:33:10;;;;;;;15.82;9.13;;;1.70;99.90;;;;;;5042349;28;20045;-57
2023/04/27 05:35:36;;;;;;;14.27;8.70;;;1.80;99.90;;;;;;5041413;28;20038;-56
2023/04/27 05:38:02;;;;;;;13.07;8.55;;;1.90;99.90;;;;;;5042341;28;20064;-57
2023/04/27 05:40:28;;;;;;;13.43;7.90;;;1.90;99.90;;;;;;5023563;28;20057;-57
2023/04/27 05:42:54;;;;;;;17.60;8.73;;;1.90;99.90;;;;;;5042460;28;20071;-57
2023/04/27 05:45:20;;;;;;;16.70;10.02;;;2.00;99.90;;;;;;5041500;28;20049;-57
2023/04/27 05:47:46;;;;;;;17.17;8.70;;;2.10;99.90;;;;;;5024446;28;20049;-57
2023/04/27 05:50:12;;;;;;;14.77;8.18;;;2.50;99.90;;;;;;5041792;28;20053;-58
2023/04/27 05:52:38;;;;;;;15.30;7.88;;;2.20;99.90;;;;;;5041386;28;20042;-57
2023/04/27 05:55:04;;;;;;;18.30;8.73;;;2.30;99.90;;;;;;5041912;28;20093;-59
2023/04/27 05:57:30;;;;;;;15.75;8.52;;;2.40;99.90;;;;;;5041299;28;20040;-57
2023/04/27 05:59:55;;;;;;;19.30;7.88;;;2.50;99.90;;;;;;5042008;28;20073;-58
2023/04/27 06:02:21;;;;;;;14.15;7.47;;;2.60;99.90;;;;;;5041381;28;20046;-57
2023/04/27 06:04:47;;;;;;;11.55;7.68;;;2.70;99.90;;;;;;5041748;28;20040;-57
2023/04/27 06:07:14;;;;;;;17.33;7.35;;;3.00;99.90;;;;;;5041819;28;20045;-57
2023/04/27 06:09:40;;;;;;;14.30;7.75;;;2.90;99.90;;;;;;5023519;28;20042;-56
2023/04/27 06:12:07;;;;;;;15.30;8.15;;;3.00;99.90;;;;;;5041514;28;20045;-57
2023/04/27 06:14:34;;;;;;;16.20;7.80;;;3.00;99.90;;;;;;5040335;28;20076;-58
2023/04/27 06:17:00;;;;;;;10.95;6.90;;;3.10;99.90;;;;;;5041721;28;20041;-57
2023/04/27 06:19:26;;;;;;;13.98;7.05;;;3.20;99.90;;;;;;5040276;28;20053;-57
2023/04/27 06:21:55;;;;;;;13.90;7.10;;;3.30;99.90;;;;;;5040730;28;20053;-57
2023/04/27 06:24:21;;;;;;;12.10;7.07;;;3.40;99.90;;;;;;5041306;28;20479;-56
2023/04/27 06:26:48;;;;;;;10.43;6.03;;;3.60;99.90;;;;;;5041116;28;20071;-57
2023/04/27 06:29:14;;;;;;;10.38;6.25;;;3.80;99.90;;;;;;5041137;28;20051;-57
2023/04/27 06:31:40;;;;;;;12.10;6.05;;;4.10;99.90;;;;;;5040245;28;20533;-58
2023/04/27 06:34:06;;;;;;;11.38;6.05;;;4.50;99.90;;;;;;5041118;28;20056;-57
2023/04/27 06:36:31;;;;;;;10.02;5.82;;;4.80;99.90;;;;;;5040461;28;20160;-58
2023/04/27 06:38:58;;;;;;;9.52;5.00;;;5.10;99.90;;;;;;5041359;28;20049;-57
2023/04/27 06:41:25;;;;;;;6.80;4.60;;;5.40;99.90;;;;;;5041040;28;20045;-57
2023/04/27 06:43:51;;;;;;;11.75;5.28;;;5.70;99.90;;;;;;5040485;28;20046;-58
2023/04/27 06:46:18;;;;;;;8.15;5.05;;;6.10;99.90;;;;;;5023060;28;20033;-57
2023/04/27 06:48:44;;;;;;;8.50;5.07;;;6.60;99.90;;;;;;5039936;28;20041;-58
2023/04/27 06:51:10;;;;;;;9.80;5.35;;;7.00;99.90;;;;;;5040695;28;20052;-57
2023/04/27 06:53:35;;;;;;;7.70;4.10;;;7.30;99.90;;;;;;5039872;28;20038;-58
2023/04/27 06:56:02;;;;;;;6.40;3.78;;;7.40;99.90;;;;;;5041140;28;20041;-58
2023/04/27 06:58:28;;;;;;;7.47;3.80;;;7.50;99.90;;;;;;5040508;28;20069;-58
2023/04/27 07:00:53;;;;;;;9.93;3.97;;;7.70;99.90;;;;;;5022330;28;20049;-57
2023/04/27 07:03:21;;;;;;;10.70;4.15;;;8.00;99.90;;;;;;5040812;28;20064;-57
2023/04/27 07:05:46;;;;;;;9.15;3.78;;;8.10;99.90;;;;;;5039940;28;20076;-57
2023/04/27 07:08:12;;;;;;;9.98;4.03;;;8.30;99.90;;;;;;5040644;28;20088;-57
2023/04/27 07:10:38;;;;;;;6.53;3.30;;;8.50;99.90;;;;;;5021954;28;20107;-56
2023/04/27 07:13:04;;;;;;;3.38;2.28;;;9.30;99.90;;;;;;5040302;28;20057;-59
2023/04/27 07:15:30;;;;;;;5.57;3.30;;;8.70;99.90;;;;;;5039977;28;20096;-57
2023/04/27 07:17:56;;;;;;;7.63;3.30;;;8.70;99.90;;;;;;5040351;28;20065;-57
2023/04/27 07:20:22;;;;;;;6.13;3.80;;;8.70;99.90;;;;;;5040237;28;20095;-57
2023/04/27 07:22:47;;;;;;;4.70;2.38;;;8.90;99.90;;;;;;5021613;28;20101;-57
2023/04/27 07:25:13;;;;;;;6.97;2.75;;;9.10;99.90;;;;;;5040040;28;20120;-57
2023/04/27 07:27:40;;;;;;;7.72;3.10;;;9.30;99.90;;;;;;5039558;28;20038;-57
2023/04/27 07:30:08;;;;;;;7.70;3.30;;;9.30;99.90;;;;;;5039883;28;20115;-57
2023/04/27 07:32:35;;;;;;;4.10;2.78;;;9.50;99.90;;;;;;5039664;28;20046;-56
2023/04/27 07:35:02;;;;;;;5.38;2.95;;;9.60;99.90;;;;;;5039949;28;20098;-57
2023/04/27 07:37:28;;;;;;;3.65;2.47;;;9.70;99.90;;;;;;5039941;28;20037;-57
2023/04/27 07:39:54;;;;;;;6.78;2.60;;;9.90;99.90;;;;;;5039106;28;20056;-57
2023/04/27 07:42:23;;;;;;;6.03;3.08;;;9.90;99.90;;;;;;5039812;28;20041;-58
2023/04/27 07:44:50;;;;;;;7.35;2.97;;;10.00;99.90;;;;;;5020587;28;20112;-57
2023/04/27 07:47:17;;;;;;;7.50;3.25;;;10.10;99.90;;;;;;5040030;28;20048;-57
2023/04/27 07:49:47;;;;;;;4.30;2.40;;;10.20;99.90;;;;;;5039308;28;20045;-57
2023/04/27 07:52:13;;;;;;;5.38;2.67;;;10.20;99.90;;;;;;5039511;28;20060;-57
2023/04/27 07:54:39;;;;;;;6.18;2.60;;;10.10;99.90;;;;;;5039488;28;20042;-57
2023/04/27 07:57:10;;;;;;;5.68;2.65;;;10.20;99.90;;;;;;5038817;28;20552;-57
2023/04/27 07:59:36;;;;;;;4.35;2.55;;;10.30;99.90;;;;;;5039464;28;20406;-57
2023/04/27 08:02:02;;;;;;;6.57;2.90;;;10.40;99.90;;;;;;5038698;28;20045;-56
2023/04/27 08:04:28;;;;;;;6.13;3.00;;;10.50;99.90;;;;;;5039751;28;20040;-57
2023/04/27 08:06:53;;;;;;;5.47;2.50;;;10.90;99.90;;;;;;5039138;28;20495;-56
2023/04/27 08:09:19;;;;;;;5.43;2.33;;;10.50;99.90;;;;;;5039498;28;20046;-57
2023/04/27 08:11:45;;;;;;;4.78;2.60;;;10.40;99.90;;;;;;5039144;28;20041;-56
2023/04/27 08:14:12;;;;;;;5.93;2.40;;;10.40;99.90;;;;;;5038380;28;20044;-57
2023/04/27 08:16:42;;;;;;;4.43;2.38;;;10.40;99.90;;;;;;5039164;28;20045;-57
2023/04/27 08:19:09;;;;;;;5.30;2.50;;;10.40;99.90;;;;;;5038308;28;20057;-57
2023/04/27 08:21:36;;;;;;;6.32;2.90;;;10.40;99.90;;;;;;5039432;28;20077;-55
2023/04/27 08:24:03;;;;;;;3.28;2.22;;;10.50;99.90;;;;;;5038946;28;20042;-56
2023/04/27 08:26:28;;;;;;;5.53;2.75;;;10.60;99.90;;;;;;5039117;28;20474;-56
2023/04/27 08:28:58;;;;;;;4.78;2.10;;;10.70;99.90;;;;;;5039154;28;20075;-57
2023/04/27 08:31:24;;;;;;;7.22;2.90;;;10.70;99.90;;;;;;5037952;28;20536;-58
2023/04/27 08:33:51;;;;;;;5.50;2.00;;;10.70;99.90;;;;;;5038866;28;20123;-56
2023/04/27 08:36:18;;;;;;;4.03;2.00;;;10.60;99.90;;;;;;5038392;28;20048;-57
2023/04/27 08:38:45;;;;;;;4.03;1.95;;;10.50;99.90;;;;;;5039220;28;20069;-57
2023/04/27 08:41:10;;;;;;;4.35;1.73;;;10.50;99.90;;;;;;5038457;28;20088;-56
2023/04/27 08:43:36;;;;;;;9.23;2.00;;;10.50;99.90;;;;;;5038414;28;20049;-57
2023/04/27 08:46:02;;;;;;;3.65;1.88;;;10.50;99.90;;;;;;5038250;28;20064;-57
2023/04/27 08:48:28;;;;;;;5.40;1.50;;;10.50;99.90;;;;;;5038182;28;20157;-57
2023/04/27 08:50:56;;;;;;;5.75;2.20;;;10.50;99.30;;;;;;5038656;28;20053;-57
2023/04/27 08:53:22;;;;;;;4.25;2.05;;;10.50;98.80;;;;;;5037891;28;20057;-57
2023/04/27 08:55:49;;;;;;;2.85;1.92;;;10.60;99.90;;;;;;5039011;28;20064;-57
2023/04/27 08:58:15;;;;;;;7.80;2.35;;;10.60;99.60;;;;;;5038472;28;20045;-57
2023/04/27 09:00:42;;;;;;;7.03;2.13;;;10.50;99.80;;;;;;5038257;28;20053;-56
2023/04/27 09:03:27;;;;;;;5.07;2.28;;;10.60;99.60;;;;;;5021080;28;20050;-57
2023/04/27 09:05:53;;;;;;;3.47;2.08;;;10.60;98.00;;;;;;5037807;28;20080;-57
2023/04/27 09:08:18;;;;;;;4.25;2.15;;;10.60;97.30;;;;;;5038677;28;20045;-57
2023/04/27 09:10:49;;;;;;;6.75;2.28;;;10.60;97.40;;;;;;5037930;28;20057;-56
2023/04/27 09:13:15;;;;;;;7.07;2.33;;;10.60;97.40;;;;;;5020511;28;20417;-57
2023/04/27 09:15:46;;;;;;;5.68;2.28;;;10.70;97.00;;;;;;5020556;28;20037;-57
2023/04/27 09:18:20;;;;;;;4.05;2.40;;;10.70;95.90;;;;;;5038042;28;20061;-56
2023/04/27 09:20:48;;;;;;;3.47;2.15;;;10.70;96.40;;;;;;5038159;28;20507;-56
2023/04/27 09:23:32;;;;;;;6.85;2.95;;;10.80;97.20;;;;;;5037658;28;20446;-57
2023/04/27 09:26:06;;;;;;;2.92;2.33;;;10.90;97.20;;;;;;5039056;28;20041;-57
2023/04/27 09:28:33;;;;;;;4.78;2.63;;;11.20;97.20;;;;;;5038409;28;20416;-56
2023/04/27 09:31:01;;;;;;;7.35;2.28;;;11.20;95.30;;;;;;5037703;28;20099;-56
2023/04/27 09:33:28;;;;;;;7.20;2.78;;;11.30;95.60;;;;;;5020395;28;20049;-57
2023/04/27 09:35:56;;;;;;;5.22;2.90;;;11.40;95.50;;;;;;5037612;28;20088;-57
2023/04/27 09:38:23;;;;;;;8.60;2.85;;;11.60;95.90;;;;;;5038379;28;20090;-56
2023/04/27 09:40:50;;;;;;;8.52;2.80;;;11.90;96.60;;;;;;5037760;28;20073;-57
2023/04/27 09:43:16;;;;;;;8.10;3.15;;;12.00;95.90;;;;;;5038307;28;20071;-57
2023/04/27 09:45:42;;;;;;;4.95;2.38;;;12.20;95.40;;;;;;5038027;28;20050;-57
2023/04/27 09:48:09;;;;;;;6.38;2.60;;;12.30;95.30;;;;;;5037850;28;20046;-57
2023/04/27 09:50:40;;;;;;;4.55;2.60;;;12.30;94.40;;;;;;5038028;28;20563;-57
2023/04/27 09:53:13;;;;;;;5.10;2.92;;;12.30;94.60;;;;;;5037326;28;20051;-56
2023/04/27 09:55:49;;;;;;;7.18;2.80;;;12.40;94.60;;;;;;5038164;28;20077;-57
2023/04/27 09:58:49;;;;;;;9.45;3.13;;;12.50;93.50;;;;;;5040345;28;20536;-57
2023/04/27 10:01:36;;;;;;;6.30;2.78;;;12.40;90.60;;;;;;5040887;28;20520;-57
2023/04/27 10:04:04;;;;;;;4.55;2.55;;;12.40;92.50;;;;;;5041882;28;20049;-57
2023/04/27 10:06:33;;;;;;;5.22;3.00;;;12.50;91.90;;;;;;5040880;28;20481;-56
2023/04/27 10:09:04;;;;;;;6.53;2.85;;;12.40;91.20;;;;;;5041819;28;20493;-57
2023/04/27 10:11:42;;;;;;;5.15;2.90;;;12.30;91.30;;;;;;5041521;28;20041;-57
2023/04/27 10:14:15;;;;;;;4.03;2.65;;;12.30;90.50;;;;;;5040345;28;20045;-57
2023/04/27 10:16:47;;;;;;;5.47;2.47;;;12.30;90.70;;;;;;5041437;28;20048;-56
2023/04/27 10:19:13;;;;;;;6.82;3.25;;;12.40;90.00;;;;;;5040587;28;20053;-57
2023/04/27 10:22:07;;;;;;;4.88;2.83;;;12.50;90.00;;;;;;5041599;28;20073;-56
2023/04/27 10:24:41;;;;;;;5.85;2.63;;;12.50;89.80;;;;;;5041208;28;20080;-57
2023/04/27 10:27:14;;;;;;;6.85;2.55;;;12.50;90.40;;;;;;5040555;28;20050;-57
2023/04/27 10:29:43;;;;;;;4.82;2.83;;;12.60;89.40;;;;;;5041080;28;20057;-56
2023/04/27 10:32:20;;;;;;;8.52;2.85;;;12.70;89.40;;;;;;5022544;28;20041;-57
2023/04/27 10:34:47;;;;;;;7.35;3.38;;;12.70;89.40;;;;;;5041474;28;20449;-57
2023/04/27 10:37:14;;;;;;;6.45;2.58;;;12.80;89.10;;;;;;5041200;28;20034;-56
2023/04/27 10:39:44;;;;;;;5.28;3.20;;;12.90;90.00;;;;;;5040456;28;20101;-56
2023/04/27 10:42:10;;;;;;;5.15;3.50;;;12.90;87.00;;;;;;5041081;28;20041;-57
2023/04/27 10:44:37;;;;;;;6.70;3.20;;;12.90;86.20;;;;;;5022389;28;20049;-57
2023/04/27 10:47:13;;;;;;;3.92;2.80;;;12.90;85.00;;;;;;5023400;28;20139;-57
2023/04/27 10:49:39;;;;;;;5.25;3.13;;;13.00;86.60;;;;;;5040615;28;20131;-57
2023/04/27 10:52:05;;;;;;;5.03;2.80;;;13.10;88.20;;;;;;5040915;28;20041;-57
2023/04/27 10:54:32;;;;;;;5.13;2.70;;;13.20;86.20;;;;;;5040708;28;20053;-57
2023/04/27 10:57:09;;;;;;;5.90;3.03;;;13.20;85.40;;;;;;5040103;28;20090;-57
2023/04/27 10:59:50;;;;;;;3.95;2.78;;;13.20;84.30;;;;;;5040721;28;20051;-57
2023/04/27 11:02:16;;;;;;;3.97;3.33;;;13.20;84.60;;;;;;5040238;28;20112;-57
2023/04/27 11:04:42;;;;;;;6.72;3.80;;;13.20;84.30;;;;;;5040828;28;20038;-56
2023/04/27 11:07:09;;;;;;;5.80;3.35;;;13.30;86.00;;;;;;5040765;28;20131;-56
2023/04/27 11:09:41;;;;;;;5.75;3.40;;;13.40;85.90;;;;;;5039477;28;20529;-56
2023/04/27 11:12:10;;;;;;;8.43;3.67;;;13.50;84.00;;;;;;5040425;28;20053;-56
2023/04/27 11:14:36;;;;;;;8.48;3.97;;;13.50;84.10;;;;;;5039376;28;20049;-56
2023/04/27 11:17:05;;;;;;;5.25;3.58;;;13.60;86.10;;;;;;5040679;28;20037;-56
2023/04/27 11:19:31;;;;;;;6.25;3.90;;;13.70;83.00;;;;;;5039749;28;20050;-56
2023/04/27 11:22:05;;;;;;;5.53;3.78;;;13.80;84.20;;;;;;5040328;28;20125;-56
2023/04/27 11:24:31;;;;;;;7.25;3.58;;;14.00;84.80;;;;;;5040142;28;20556;-56
2023/04/27 11:26:57;;;;;;;7.05;3.25;;;14.10;83.70;;;;;;5039556;28;20552;-56
2023/04/27 11:29:23;;;;;;;6.72;3.83;;;14.20;81.30;;;;;;5022181;28;20233;-57
2023/04/27 11:31:50;;;;;;;7.30;3.80;;;14.20;81.80;;;;;;5038892;28;20072;-57
2023/04/27 11:34:23;;;;;;;6.88;3.65;;;14.30;80.50;;;;;;5040251;28;20050;-56
2023/04/27 11:36:59;;;;;;;8.05;3.42;;;14.30;80.60;;;;;;5039854;28;20044;-56
2023/04/27 11:39:32;;;;;;;10.23;4.28;;;14.20;79.80;;;;;;5039745;28;20046;-57
2023/04/27 11:42:23;;;;;;;6.10;3.95;;;14.20;79.90;;;;;;5039785;28;20513;-57
2023/04/27 11:44:54;;;;;;;8.02;4.60;;;14.10;78.40;;;;;;5038824;28;20049;-57
2023/04/27 11:47:21;;;;;;;5.30;3.40;;;14.20;82.70;;;;;;5040369;28;20091;-57
2023/04/27 11:49:54;;;;;;;6.32;3.75;;;14.50;83.60;;;;;;5039489;28;20536;-57
2023/04/27 11:52:20;;;;;;;5.05;3.70;;;14.60;81.40;;;;;;5021532;28;20061;-57
2023/04/27 11:54:52;;;;;;;5.95;3.63;;;14.80;82.00;;;;;;5039388;28;20120;-58
2023/04/27 11:57:28;;;;;;;6.18;3.90;;;14.90;79.10;;;;;;5039179;28;20477;-57
2023/04/27 11:59:56;;;;;;;6.00;3.92;;;15.00;80.60;;;;;;5039975;28;20116;-57
2023/04/27 12:02:22;;;;;;;7.93;3.90;;;15.10;80.90;;;;;;5039107;28;20100;-57
2023/04/27 12:04:50;;;;;;;9.20;4.10;;;15.20;80.90;;;;;;5039723;28;20048;-57
2023/04/27 12:07:17;;;;;;;6.10;3.70;;;15.30;80.00;;;;;;5039366;28;20124;-57
2023/04/27 12:09:43;;;;;;;6.70;4.05;;;15.40;78.90;;;;;;5038749;28;20041;-57
2023/04/27 12:12:10;;;;;;;8.18;4.05;;;15.30;77.60;;;;;;5039226;28;20053;-57
2023/04/27 12:14:36;;;;;;;8.25;3.85;;;15.30;78.30;;;;;;5038266;28;20045;-57
2023/04/27 12:17:02;;;;;;;6.05;3.55;;;15.20;75.60;;;;;;5039440;28;20513;-57
2023/04/27 12:19:28;;;;;;;5.97;3.97;;;15.20;74.90;;;;;;5037477;28;20137;-57
2023/04/27 12:21:54;;;;;;;6.50;3.78;;;15.10;75.10;;;;;;5039044;28;20337;-57
2023/04/27 12:24:20;;;;;;;8.13;3.65;;;15.10;74.90;;;;;;5039105;28;20463;-57
2023/04/27 12:26:47;;;;;;;4.93;3.63;;;15.00;72.70;;;;;;5038931;28;20095;-57
2023/04/27 12:29:12;;;;;;;5.15;3.50;;;14.80;72.00;;;;;;5039089;28;20037;-57
2023/04/27 12:31:38;;;;;;;7.63;4.05;;;14.60;72.20;;;;;;5038033;28;20124;-57
2023/04/27 12:34:04;;;;;;;5.85;3.58;;;14.50;72.00;;;;;;5039157;28;20038;-57
2023/04/27 12:36:31;;;;;;;5.43;3.63;;;14.50;71.90;;;;;;5020480;28;20037;-57
2023/04/27 12:39:00;;;;;;;7.25;4.13;;;14.60;72.70;;;;;;5039155;28;20072;-56
2023/04/27 12:41:26;;;;;;;9.82;4.57;;;14.90;74.10;;;;;;5038978;28;20462;-57
2023/04/27 12:43:52;;;;;;;6.25;3.70;;;15.30;75.90;;;;;;5037877;28;20041;-57
2023/04/27 12:46:17;;;;;;;5.53;3.03;;;15.90;74.00;;;;;;5038730;28;20237;-57
2023/04/27 12:48:43;;;;;;;6.82;3.10;;;16.30;74.20;;;;;;5038125;28;20088;-57